الصفحة الرئيسية
METAR-TAF:

METAR-TAF

مطار :

غروزني, روسيا

دائرة عرض: 43-23-18N, خط طول: 045-41-59E, ارتفاع: 167 متر

مراقبة الطقس الحالي

تاريخ ووقت الإصدار 36 دقيقة قبل الساعة 16:00UTC
ريح 6 عقدة من الجنوب الشرقي
درجة الحرارة 32°درجة مئوية
الرطوبة 36%
ضغط 1008 hPa
الرؤية 10 كم أو أكثر
الغيوم لا تقل 1500 م ولا وجود لمزنة ركامية السحاب الأسود

METAR: URMG 161600Z 14003MPS CAVOK 32/15 Q1008 R08/090070 NOSIG RMK QFE741/0989

زمن: 19:36 (16:36 UTC)

توقعات

تاريخ ووقت الإصدار 1ساعة و 38 دقيقة قبل الساعة 14:58UTC
التوقعات صالحة من16 الساعة 15 UTC إلى 16 الساعة 24 UTC
ريح 6 عقدة من الجنوب/الجنوب الغربي تتزايد حتى 16 عقدة
الرؤية 10 كم أو أكثر
غيوم متفرقة على ارتفاع 5500 قدم
مؤقت
من 16 الساعة 15 UTC إلى 16 الساعة 24 UTC
الرؤية: 6000 متر
غيوم مفككة على ارتفاع 1600 قدم
غيوم مفككة على ارتفاع 3000 قدم, مزنة ركامية.
زخات من الأمطار الخفيفة,

TAF: URMG 161458Z 1615/1624 20003G08MPS 9999 SCT055 TEMPO 1615/1624 6000 -SHRA BKN016 BKN030CB

أرصاد الطقس والتوقعات من أكثر من 4000 مطار (تقارير الطقس للمطار METAR والتنبؤ بالطقس بالمطارTAF).

المحطات المتاحة هي النقط الصفراء والحمراء على الخريطة.

حرك المؤشر فوق النقطة لمعرفة اسم المحطة.

ثم انقر لمعرفة أرصاد وتوقعات الطقس.

لتغيير الخارطة: اضغط على الأزرار الخضراء مع رمز الصليب الأسود للتكبير. على الزر الأخضر مع شرطة للتصغير، أو على الأسهم الخضراء للخرائط المجاورة.


METAR-TAF: